VLG6KC LDDU-LEBL
Flight info
| Callsign | VLG6KC |
|---|---|
| Flight time | 2h 16m |
| Altitude | 29000 |
| Route | AMUGO M169 ORAKA DCT KATTI DCT TINTO DCT OLBEK DCT EPIKU DCT GINOX DCT KIFMI DCT ELVOP DCT MUREN DCT CHELY DCT VERSO |
| Aircraft | A320/M-SDFGHILORVWXY/LB1 |
Departure
| Time | 2026-05-07 12:32 |
|---|---|
| Airport | Dubrovnik Ruđer Bošković Airport (LDDU) |
Arrival
| Time | 2026-05-07 14:48 |
|---|---|
| Airport | Josep Tarradellas Barcelona-El Prat Airport (LEBL) |
| Time | Latitude | Longitude | Altitude | Speed | Heading |
|---|---|---|---|---|---|
| 2026-05-07 11:28 | 42.56006 | 18.26513 | 534 ft | 0 kts | 209° |
| 2026-05-07 12:24 | 42.56010 | 18.26516 | 534 ft | 3 kts | 209° |
| 2026-05-07 12:24 | 42.56033 | 18.26534 | 534 ft | 4 kts | 208° |
| 2026-05-07 12:24 | 42.56052 | 18.26552 | 534 ft | 4 kts | 259° |
| 2026-05-07 12:25 | 42.56049 | 18.26573 | 534 ft | 4 kts | 298° |
| 2026-05-07 12:25 | 42.56043 | 18.26588 | 534 ft | 0 kts | 298° |
| 2026-05-07 12:28 | 42.56048 | 18.26575 | 534 ft | 5 kts | 298° |
| 2026-05-07 12:28 | 42.56080 | 18.26494 | 534 ft | 13 kts | 298° |
| 2026-05-07 12:28 | 42.56124 | 18.26384 | 534 ft | 14 kts | 298° |
| 2026-05-07 12:28 | 42.56174 | 18.26255 | 534 ft | 17 kts | 298° |
| 2026-05-07 12:29 | 42.56235 | 18.26104 | 534 ft | 20 kts | 298° |
| 2026-05-07 12:29 | 42.56303 | 18.25930 | 534 ft | 22 kts | 298° |
| 2026-05-07 12:29 | 42.56381 | 18.25734 | 534 ft | 25 kts | 299° |
| 2026-05-07 12:29 | 42.56469 | 18.25517 | 534 ft | 27 kts | 298° |
| 2026-05-07 12:30 | 42.56558 | 18.25294 | 534 ft | 18 kts | 298° |
| 2026-05-07 12:30 | 42.56613 | 18.25154 | 534 ft | 18 kts | 297° |
| 2026-05-07 12:30 | 42.56676 | 18.24990 | 533 ft | 21 kts | 297° |
| 2026-05-07 12:30 | 42.56751 | 18.24805 | 534 ft | 22 kts | 298° |
| 2026-05-07 12:31 | 42.56806 | 18.24691 | 534 ft | 13 kts | 321° |
| 2026-05-07 12:31 | 42.56897 | 18.24690 | 533 ft | 15 kts | 28° |
| 2026-05-07 12:31 | 42.56929 | 18.24816 | 533 ft | 17 kts | 107° |
| 2026-05-07 12:31 | 42.56818 | 18.25105 | 531 ft | 66 kts | 118° |
| 2026-05-07 12:32 | 42.56500 | 18.25910 | 536 ft | 126 kts | 118° |
| 2026-05-07 12:32 | 42.56013 | 18.27135 | 579 ft | 168 kts | 119° |
| 2026-05-07 12:32 | 42.55474 | 18.28507 | 1250 ft | 165 kts | 120° |
| 2026-05-07 12:32 | 42.54938 | 18.29877 | 1941 ft | 164 kts | 119° |
| 2026-05-07 12:33 | 42.53866 | 18.32589 | 3170 ft | 163 kts | 122° |
| 2026-05-07 12:33 | 42.53035 | 18.33592 | 3705 ft | 165 kts | 161° |
| 2026-05-07 12:33 | 42.51852 | 18.33556 | 3959 ft | 185 kts | 206° |
| 2026-05-07 12:34 | 42.50927 | 18.32235 | 4191 ft | 210 kts | 245° |
| 2026-05-07 12:34 | 42.50594 | 18.30186 | 4455 ft | 236 kts | 262° |
| 2026-05-07 12:34 | 42.50518 | 18.27849 | 4833 ft | 260 kts | 272° |
| 2026-05-07 12:34 | 42.50650 | 18.25358 | 5533 ft | 268 kts | 272° |
| 2026-05-07 12:35 | 42.50796 | 18.22834 | 6409 ft | 269 kts | 272° |
| 2026-05-07 12:35 | 42.50947 | 18.20301 | 7304 ft | 270 kts | 272° |
| 2026-05-07 12:35 | 42.51101 | 18.17763 | 8163 ft | 272 kts | 272° |
| 2026-05-07 12:35 | 42.51254 | 18.15201 | 8990 ft | 274 kts | 272° |
| 2026-05-07 12:36 | 42.51404 | 18.12618 | 9802 ft | 276 kts | 272° |
| 2026-05-07 12:36 | 42.51556 | 18.10004 | 10466 ft | 285 kts | 273° |
| 2026-05-07 12:36 | 42.51717 | 18.07218 | 10681 ft | 308 kts | 272° |
| 2026-05-07 12:36 | 42.51887 | 18.04243 | 11090 ft | 322 kts | 272° |
| 2026-05-07 12:37 | 42.52061 | 18.01191 | 11757 ft | 327 kts | 272° |
| 2026-05-07 12:37 | 42.52239 | 17.98102 | 12466 ft | 330 kts | 272° |
| 2026-05-07 12:37 | 42.52416 | 17.94981 | 13148 ft | 334 kts | 272° |
| 2026-05-07 12:37 | 42.52591 | 17.91828 | 13820 ft | 337 kts | 272° |
| 2026-05-07 12:38 | 42.52766 | 17.88644 | 14474 ft | 340 kts | 272° |
| 2026-05-07 12:38 | 42.52944 | 17.85435 | 15103 ft | 344 kts | 272° |
| 2026-05-07 12:38 | 42.53125 | 17.82179 | 15716 ft | 347 kts | 272° |
| 2026-05-07 12:38 | 42.53307 | 17.78911 | 16327 ft | 350 kts | 272° |
| 2026-05-07 12:39 | 42.53493 | 17.75609 | 16903 ft | 353 kts | 272° |
| 2026-05-07 12:39 | 42.53676 | 17.72319 | 17457 ft | 356 kts | 272° |
| 2026-05-07 12:39 | 42.53858 | 17.68955 | 18011 ft | 359 kts | 272° |
| 2026-05-07 12:39 | 42.54038 | 17.65562 | 18579 ft | 362 kts | 272° |
| 2026-05-07 12:40 | 42.54220 | 17.62144 | 19133 ft | 365 kts | 272° |
| 2026-05-07 12:40 | 42.54397 | 17.58703 | 19684 ft | 367 kts | 270° |
| 2026-05-07 12:40 | 42.54370 | 17.55240 | 20218 ft | 369 kts | 266° |
| 2026-05-07 12:40 | 42.54306 | 17.51754 | 20752 ft | 371 kts | 266° |
| 2026-05-07 12:41 | 42.54240 | 17.48253 | 21284 ft | 373 kts | 266° |
| 2026-05-07 12:41 | 42.54174 | 17.44720 | 21803 ft | 376 kts | 266° |
| 2026-05-07 12:41 | 42.54111 | 17.41161 | 22299 ft | 379 kts | 266° |
| 2026-05-07 12:41 | 42.54046 | 17.37577 | 22783 ft | 381 kts | 266° |
| 2026-05-07 12:42 | 42.53977 | 17.33971 | 23254 ft | 384 kts | 266° |
| 2026-05-07 12:42 | 42.53907 | 17.30344 | 23720 ft | 386 kts | 266° |
| 2026-05-07 12:42 | 42.53834 | 17.26694 | 24144 ft | 388 kts | 266° |
| 2026-05-07 12:42 | 42.53759 | 17.23025 | 24566 ft | 390 kts | 266° |
| 2026-05-07 12:43 | 42.53681 | 17.19334 | 24970 ft | 393 kts | 266° |
| 2026-05-07 12:43 | 42.53605 | 17.15622 | 25355 ft | 395 kts | 266° |
| 2026-05-07 12:43 | 42.53530 | 17.11890 | 25733 ft | 397 kts | 266° |
| 2026-05-07 12:43 | 42.53454 | 17.08143 | 26104 ft | 399 kts | 266° |
| 2026-05-07 12:44 | 42.53376 | 17.04377 | 26462 ft | 400 kts | 266° |
| 2026-05-07 12:44 | 42.53296 | 17.00644 | 26804 ft | 402 kts | 266° |
| 2026-05-07 12:44 | 42.53210 | 16.96842 | 27139 ft | 404 kts | 266° |
| 2026-05-07 12:44 | 42.53122 | 16.93031 | 27467 ft | 406 kts | 266° |
| 2026-05-07 12:45 | 42.53032 | 16.89193 | 27792 ft | 408 kts | 266° |
| 2026-05-07 12:45 | 42.52942 | 16.85342 | 28120 ft | 409 kts | 266° |
| 2026-05-07 12:45 | 42.52852 | 16.81478 | 28440 ft | 411 kts | 266° |
| 2026-05-07 12:45 | 42.52761 | 16.77599 | 28751 ft | 412 kts | 266° |
| 2026-05-07 12:46 | 42.52668 | 16.73708 | 29058 ft | 414 kts | 266° |
| 2026-05-07 12:46 | 42.52575 | 16.69805 | 29340 ft | 415 kts | 266° |
| 2026-05-07 12:46 | 42.52480 | 16.65888 | 29612 ft | 416 kts | 266° |
| 2026-05-07 12:46 | 42.52382 | 16.61960 | 29881 ft | 417 kts | 266° |
| 2026-05-07 12:47 | 42.52281 | 16.58027 | 30021 ft | 416 kts | 266° |
| 2026-05-07 12:47 | 42.52183 | 16.54173 | 30042 ft | 402 kts | 266° |
| 2026-05-07 12:47 | 42.51989 | 16.46717 | 30047 ft | 393 kts | 266° |
| 2026-05-07 12:48 | 42.51783 | 16.39344 | 30045 ft | 391 kts | 266° |
| 2026-05-07 12:48 | 42.51574 | 16.31978 | 30044 ft | 391 kts | 266° |
| 2026-05-07 12:49 | 42.51367 | 16.24615 | 30045 ft | 391 kts | 266° |
| 2026-05-07 12:49 | 42.51153 | 16.17253 | 30045 ft | 391 kts | 266° |
| 2026-05-07 12:50 | 42.50931 | 16.09902 | 30042 ft | 390 kts | 266° |
| 2026-05-07 12:50 | 42.50370 | 16.02613 | 30043 ft | 389 kts | 256° |
| 2026-05-07 12:51 | 42.49070 | 15.95550 | 30045 ft | 389 kts | 256° |
| 2026-05-07 12:51 | 42.47775 | 15.88454 | 30046 ft | 388 kts | 256° |
| 2026-05-07 12:52 | 42.46476 | 15.81359 | 30043 ft | 388 kts | 256° |
| 2026-05-07 12:52 | 42.45172 | 15.74282 | 30045 ft | 387 kts | 256° |
| 2026-05-07 12:53 | 42.43862 | 15.67226 | 30045 ft | 386 kts | 255° |
| 2026-05-07 12:53 | 42.42553 | 15.60185 | 30035 ft | 386 kts | 255° |
| 2026-05-07 12:54 | 42.41243 | 15.53150 | 30029 ft | 385 kts | 255° |
| 2026-05-07 12:54 | 42.39924 | 15.46131 | 30020 ft | 385 kts | 255° |
| 2026-05-07 12:55 | 42.38603 | 15.39123 | 30024 ft | 384 kts | 255° |
| 2026-05-07 12:55 | 42.37284 | 15.32126 | 30038 ft | 384 kts | 255° |
| 2026-05-07 12:56 | 42.35961 | 15.25133 | 30038 ft | 384 kts | 255° |
| 2026-05-07 12:56 | 42.34626 | 15.18151 | 30037 ft | 383 kts | 255° |
| 2026-05-07 12:57 | 42.33519 | 15.12362 | 30034 ft | 383 kts | 255° |
| 2026-05-07 12:57 | 42.31971 | 15.04281 | 30041 ft | 382 kts | 255° |
| 2026-05-07 12:58 | 42.30641 | 14.97338 | 30038 ft | 381 kts | 255° |
| 2026-05-07 12:58 | 42.29533 | 14.91582 | 30033 ft | 380 kts | 254° |
| 2026-05-07 12:59 | 42.28196 | 14.84684 | 30035 ft | 379 kts | 254° |
| 2026-05-07 12:59 | 42.26859 | 14.77807 | 30031 ft | 379 kts | 254° |
| 2026-05-07 13:00 | 42.25524 | 14.70936 | 30030 ft | 378 kts | 254° |
| 2026-05-07 13:00 | 42.24186 | 14.64082 | 30025 ft | 377 kts | 254° |
| 2026-05-07 13:01 | 42.22848 | 14.57249 | 30025 ft | 376 kts | 254° |
| 2026-05-07 13:01 | 42.21504 | 14.50430 | 30031 ft | 376 kts | 254° |
| 2026-05-07 13:02 | 42.20157 | 14.43630 | 30028 ft | 375 kts | 254° |
| 2026-05-07 13:02 | 42.18806 | 14.36842 | 30025 ft | 375 kts | 254° |
| 2026-05-07 13:03 | 42.17458 | 14.30063 | 30023 ft | 374 kts | 254° |
| 2026-05-07 13:03 | 42.16109 | 14.23289 | 30033 ft | 374 kts | 254° |
| 2026-05-07 13:04 | 42.14756 | 14.16529 | 30022 ft | 373 kts | 254° |
| 2026-05-07 13:04 | 42.13402 | 14.09782 | 30016 ft | 373 kts | 254° |
| 2026-05-07 13:05 | 42.12046 | 14.03034 | 30027 ft | 373 kts | 254° |
| 2026-05-07 13:05 | 42.10687 | 13.96296 | 30019 ft | 372 kts | 254° |
| 2026-05-07 13:06 | 42.09320 | 13.89566 | 30019 ft | 373 kts | 254° |
| 2026-05-07 13:06 | 42.07952 | 13.82845 | 30019 ft | 372 kts | 254° |
| 2026-05-07 13:07 | 42.06584 | 13.76143 | 30019 ft | 372 kts | 253° |
| 2026-05-07 13:07 | 42.05211 | 13.69436 | 30021 ft | 372 kts | 253° |
| 2026-05-07 13:08 | 42.03842 | 13.62780 | 30028 ft | 371 kts | 253° |
| 2026-05-07 13:08 | 42.02464 | 13.56092 | 30022 ft | 371 kts | 253° |
| 2026-05-07 13:09 | 42.01084 | 13.49423 | 30022 ft | 370 kts | 253° |
| 2026-05-07 13:09 | 41.99702 | 13.42769 | 30019 ft | 369 kts | 253° |
| 2026-05-07 13:10 | 41.98316 | 13.36140 | 30026 ft | 368 kts | 253° |
| 2026-05-07 13:10 | 41.96930 | 13.29523 | 30032 ft | 367 kts | 253° |
| 2026-05-07 13:11 | 41.95549 | 13.22929 | 30034 ft | 366 kts | 253° |
| 2026-05-07 13:11 | 41.94170 | 13.16354 | 30033 ft | 365 kts | 253° |
| 2026-05-07 13:12 | 41.92795 | 13.09810 | 30036 ft | 364 kts | 253° |
| 2026-05-07 13:12 | 41.91421 | 13.03326 | 30038 ft | 363 kts | 253° |
| 2026-05-07 13:13 | 41.90039 | 12.96826 | 30032 ft | 362 kts | 253° |
| 2026-05-07 13:13 | 41.88655 | 12.90302 | 30034 ft | 360 kts | 253° |
| 2026-05-07 13:14 | 41.87277 | 12.83859 | 30024 ft | 359 kts | 253° |
| 2026-05-07 13:14 | 41.85904 | 12.77484 | 30018 ft | 357 kts | 253° |
| 2026-05-07 13:15 | 41.84534 | 12.71086 | 30019 ft | 356 kts | 253° |
| 2026-05-07 13:15 | 41.83165 | 12.64711 | 30025 ft | 355 kts | 253° |
| 2026-05-07 13:16 | 41.81794 | 12.58368 | 30016 ft | 354 kts | 253° |
| 2026-05-07 13:16 | 41.80415 | 12.52051 | 30011 ft | 352 kts | 253° |
| 2026-05-07 13:17 | 41.79045 | 12.45758 | 30017 ft | 351 kts | 252° |
| 2026-05-07 13:17 | 41.77683 | 12.39501 | 29997 ft | 349 kts | 252° |
| 2026-05-07 13:18 | 41.76328 | 12.33264 | 29998 ft | 348 kts | 252° |
| 2026-05-07 13:18 | 41.74964 | 12.27035 | 29993 ft | 348 kts | 252° |
| 2026-05-07 13:19 | 41.73594 | 12.20825 | 29994 ft | 348 kts | 252° |
| 2026-05-07 13:19 | 41.72227 | 12.14629 | 29990 ft | 347 kts | 252° |
| 2026-05-07 13:20 | 41.70862 | 12.08443 | 29988 ft | 346 kts | 252° |
| 2026-05-07 13:20 | 41.69494 | 12.02271 | 29987 ft | 346 kts | 252° |
| 2026-05-07 13:21 | 41.68129 | 11.96157 | 29987 ft | 345 kts | 252° |
| 2026-05-07 13:21 | 41.66757 | 11.90020 | 29987 ft | 344 kts | 252° |
| 2026-05-07 13:22 | 41.65383 | 11.83880 | 29982 ft | 345 kts | 252° |
| 2026-05-07 13:22 | 41.64694 | 11.80806 | 29783 ft | 343 kts | 252° |
| 2026-05-07 13:22 | 41.64014 | 11.77758 | 29531 ft | 341 kts | 252° |
| 2026-05-07 13:23 | 41.63334 | 11.74719 | 29282 ft | 342 kts | 252° |
| 2026-05-07 13:23 | 41.62647 | 11.71669 | 29066 ft | 343 kts | 252° |
| 2026-05-07 13:23 | 41.61260 | 11.65533 | 29009 ft | 346 kts | 252° |
| 2026-05-07 13:24 | 41.59865 | 11.59373 | 29016 ft | 348 kts | 252° |
| 2026-05-07 13:24 | 41.58466 | 11.53186 | 29017 ft | 348 kts | 252° |
| 2026-05-07 13:25 | 41.57062 | 11.47007 | 29017 ft | 348 kts | 252° |
| 2026-05-07 13:25 | 41.55650 | 11.40830 | 29015 ft | 348 kts | 252° |
| 2026-05-07 13:26 | 41.54245 | 11.34699 | 29012 ft | 347 kts | 252° |
| 2026-05-07 13:26 | 41.52833 | 11.28539 | 29005 ft | 347 kts | 252° |
| 2026-05-07 13:27 | 41.51418 | 11.22378 | 29002 ft | 347 kts | 252° |
| 2026-05-07 13:27 | 41.50007 | 11.16234 | 28999 ft | 347 kts | 252° |
| 2026-05-07 13:28 | 41.48586 | 11.10085 | 29000 ft | 347 kts | 252° |
| 2026-05-07 13:28 | 41.47219 | 11.03909 | 29004 ft | 348 kts | 254° |
| 2026-05-07 13:29 | 41.46123 | 10.97630 | 29009 ft | 348 kts | 256° |
| 2026-05-07 13:29 | 41.45075 | 10.91323 | 29013 ft | 349 kts | 255° |
| 2026-05-07 13:30 | 41.43993 | 10.85026 | 29019 ft | 348 kts | 255° |
| 2026-05-07 13:30 | 41.42881 | 10.78746 | 29022 ft | 348 kts | 255° |
| 2026-05-07 13:31 | 41.41767 | 10.72488 | 29024 ft | 347 kts | 255° |
| 2026-05-07 13:31 | 41.40641 | 10.66226 | 29025 ft | 347 kts | 255° |
| 2026-05-07 13:32 | 41.39518 | 10.59984 | 29021 ft | 346 kts | 255° |
| 2026-05-07 13:32 | 41.38398 | 10.53740 | 29019 ft | 347 kts | 255° |
| 2026-05-07 13:33 | 41.37280 | 10.47544 | 29019 ft | 346 kts | 255° |
| 2026-05-07 13:33 | 41.36155 | 10.41317 | 29017 ft | 346 kts | 255° |
| 2026-05-07 13:34 | 41.34466 | 10.31992 | 29013 ft | 345 kts | 255° |
| 2026-05-07 13:35 | 41.33335 | 10.25781 | 29011 ft | 346 kts | 255° |
| 2026-05-07 13:35 | 41.32192 | 10.19562 | 29009 ft | 346 kts | 255° |
| 2026-05-07 13:36 | 41.31047 | 10.13346 | 29010 ft | 346 kts | 255° |
| 2026-05-07 13:36 | 41.29914 | 10.07127 | 29010 ft | 346 kts | 255° |
| 2026-05-07 13:37 | 41.28773 | 10.00916 | 29009 ft | 346 kts | 255° |
| 2026-05-07 13:37 | 41.27628 | 9.94711 | 29006 ft | 345 kts | 255° |
| 2026-05-07 13:38 | 41.26473 | 9.88519 | 29002 ft | 346 kts | 255° |
| 2026-05-07 13:38 | 41.25275 | 9.82328 | 28996 ft | 346 kts | 253° |
| 2026-05-07 13:39 | 41.23910 | 9.76198 | 28993 ft | 347 kts | 252° |
| 2026-05-07 13:39 | 41.22503 | 9.70078 | 28991 ft | 346 kts | 252° |
| 2026-05-07 13:40 | 41.21115 | 9.63952 | 28991 ft | 346 kts | 252° |
| 2026-05-07 13:40 | 41.19751 | 9.57862 | 28989 ft | 346 kts | 252° |
| 2026-05-07 13:41 | 41.18375 | 9.51716 | 28988 ft | 347 kts | 252° |
| 2026-05-07 13:41 | 41.16991 | 9.45571 | 28987 ft | 348 kts | 252° |
| 2026-05-07 13:42 | 41.15610 | 9.39421 | 28981 ft | 348 kts | 252° |
| 2026-05-07 13:42 | 41.14220 | 9.33283 | 28978 ft | 347 kts | 252° |
| 2026-05-07 13:43 | 41.12825 | 9.27144 | 28981 ft | 348 kts | 252° |
| 2026-05-07 13:43 | 41.11431 | 9.21001 | 28973 ft | 348 kts | 252° |
| 2026-05-07 13:44 | 41.10030 | 9.14855 | 28980 ft | 349 kts | 252° |
| 2026-05-07 13:44 | 41.08616 | 9.08703 | 28968 ft | 349 kts | 252° |
| 2026-05-07 13:45 | 41.07202 | 9.02539 | 28974 ft | 350 kts | 252° |
| 2026-05-07 13:45 | 41.05786 | 8.96375 | 28969 ft | 350 kts | 252° |
| 2026-05-07 13:46 | 41.04357 | 8.90198 | 28964 ft | 351 kts | 252° |
| 2026-05-07 13:46 | 41.02920 | 8.84016 | 28972 ft | 351 kts | 252° |
| 2026-05-07 13:47 | 41.01490 | 8.77826 | 28974 ft | 352 kts | 252° |
| 2026-05-07 13:47 | 41.00056 | 8.71641 | 28960 ft | 352 kts | 251° |
| 2026-05-07 13:48 | 40.98853 | 8.66487 | 28969 ft | 353 kts | 251° |
| 2026-05-07 13:48 | 40.97404 | 8.60280 | 28963 ft | 353 kts | 251° |
| 2026-05-07 13:49 | 40.95952 | 8.54070 | 28965 ft | 354 kts | 251° |
| 2026-05-07 13:49 | 40.94258 | 8.46848 | 28967 ft | 354 kts | 251° |
| 2026-05-07 13:50 | 40.93026 | 8.41645 | 28962 ft | 354 kts | 251° |
| 2026-05-07 13:50 | 40.91551 | 8.35433 | 28966 ft | 354 kts | 251° |
| 2026-05-07 13:51 | 40.90077 | 8.29226 | 28963 ft | 354 kts | 251° |
| 2026-05-07 13:51 | 40.88613 | 8.23064 | 28963 ft | 354 kts | 251° |
| 2026-05-07 13:52 | 40.87133 | 8.16857 | 28974 ft | 354 kts | 251° |
| 2026-05-07 13:52 | 40.85906 | 8.10558 | 28956 ft | 356 kts | 262° |
| 2026-05-07 13:53 | 40.86068 | 8.03978 | 28961 ft | 360 kts | 270° |
| 2026-05-07 13:53 | 40.86384 | 7.97388 | 28952 ft | 360 kts | 270° |
| 2026-05-07 13:54 | 40.86832 | 7.90785 | 28950 ft | 361 kts | 271° |
| 2026-05-07 13:54 | 40.87327 | 7.84169 | 28957 ft | 362 kts | 271° |
| 2026-05-07 13:55 | 40.87797 | 7.77542 | 28954 ft | 362 kts | 271° |
| 2026-05-07 13:55 | 40.88248 | 7.70918 | 28955 ft | 362 kts | 271° |
| 2026-05-07 13:56 | 40.88691 | 7.64295 | 28973 ft | 362 kts | 271° |
| 2026-05-07 13:56 | 40.89129 | 7.57668 | 28959 ft | 362 kts | 271° |
| 2026-05-07 13:57 | 40.89565 | 7.51048 | 28960 ft | 362 kts | 271° |
| 2026-05-07 13:57 | 40.89999 | 7.44417 | 28962 ft | 362 kts | 271° |
| 2026-05-07 13:58 | 40.90427 | 7.37785 | 28977 ft | 362 kts | 271° |
| 2026-05-07 13:58 | 40.90853 | 7.31156 | 28971 ft | 361 kts | 270° |
| 2026-05-07 13:59 | 40.91271 | 7.24581 | 28964 ft | 361 kts | 270° |
| 2026-05-07 13:59 | 40.91690 | 7.17967 | 28958 ft | 361 kts | 270° |
| 2026-05-07 14:00 | 40.92096 | 7.11355 | 28969 ft | 361 kts | 270° |
| 2026-05-07 14:00 | 40.92505 | 7.04748 | 28964 ft | 361 kts | 270° |
| 2026-05-07 14:01 | 40.92917 | 6.98129 | 28965 ft | 361 kts | 269° |
| 2026-05-07 14:01 | 40.93322 | 6.91514 | 28965 ft | 361 kts | 269° |
| 2026-05-07 14:02 | 40.93715 | 6.84902 | 28966 ft | 361 kts | 269° |
| 2026-05-07 14:02 | 40.94110 | 6.78287 | 28967 ft | 361 kts | 269° |
| 2026-05-07 14:03 | 40.94501 | 6.71673 | 28967 ft | 360 kts | 269° |
| 2026-05-07 14:03 | 40.94886 | 6.65062 | 28971 ft | 361 kts | 269° |
| 2026-05-07 14:04 | 40.95272 | 6.58451 | 28979 ft | 361 kts | 269° |
| 2026-05-07 14:04 | 40.95647 | 6.51832 | 28971 ft | 361 kts | 269° |
| 2026-05-07 14:05 | 40.96011 | 6.45215 | 28972 ft | 361 kts | 269° |
| 2026-05-07 14:05 | 40.96380 | 6.38592 | 28987 ft | 361 kts | 269° |
| 2026-05-07 14:06 | 40.96750 | 6.31965 | 28974 ft | 361 kts | 269° |
| 2026-05-07 14:06 | 40.97108 | 6.25382 | 28979 ft | 361 kts | 269° |
| 2026-05-07 14:07 | 40.97467 | 6.18755 | 28974 ft | 361 kts | 269° |
| 2026-05-07 14:07 | 40.97824 | 6.12142 | 28972 ft | 361 kts | 269° |
| 2026-05-07 14:08 | 40.98180 | 6.05524 | 28985 ft | 361 kts | 269° |
| 2026-05-07 14:08 | 40.98531 | 5.98904 | 28974 ft | 360 kts | 269° |
| 2026-05-07 14:09 | 40.98875 | 5.92284 | 28975 ft | 361 kts | 269° |
| 2026-05-07 14:09 | 40.99217 | 5.85650 | 28974 ft | 361 kts | 269° |
| 2026-05-07 14:10 | 40.99549 | 5.79010 | 28970 ft | 362 kts | 269° |
| 2026-05-07 14:10 | 40.99884 | 5.72346 | 28971 ft | 363 kts | 269° |
| 2026-05-07 14:11 | 41.00219 | 5.65678 | 28970 ft | 363 kts | 269° |
| 2026-05-07 14:11 | 41.00547 | 5.59006 | 28968 ft | 363 kts | 269° |
| 2026-05-07 14:12 | 41.00866 | 5.52329 | 28971 ft | 363 kts | 268° |
| 2026-05-07 14:12 | 41.01182 | 5.45649 | 28973 ft | 363 kts | 269° |
| 2026-05-07 14:13 | 41.01500 | 5.39024 | 28978 ft | 363 kts | 269° |
| 2026-05-07 14:13 | 41.01852 | 5.32343 | 28974 ft | 364 kts | 269° |
| 2026-05-07 14:14 | 41.02214 | 5.25655 | 28980 ft | 363 kts | 269° |
| 2026-05-07 14:14 | 41.02561 | 5.18996 | 28980 ft | 362 kts | 269° |
| 2026-05-07 14:15 | 41.02897 | 5.12327 | 28980 ft | 362 kts | 269° |
| 2026-05-07 14:15 | 41.03234 | 5.05679 | 28977 ft | 362 kts | 269° |
| 2026-05-07 14:16 | 41.03576 | 4.99031 | 28973 ft | 362 kts | 269° |
| 2026-05-07 14:16 | 41.03911 | 4.92386 | 28973 ft | 362 kts | 269° |
| 2026-05-07 14:17 | 41.04232 | 4.85733 | 28972 ft | 362 kts | 269° |
| 2026-05-07 14:17 | 41.04549 | 4.79070 | 28965 ft | 363 kts | 269° |
| 2026-05-07 14:18 | 41.05044 | 4.72411 | 28970 ft | 365 kts | 272° |
| 2026-05-07 14:18 | 41.05783 | 4.65751 | 28980 ft | 366 kts | 274° |
| 2026-05-07 14:19 | 41.06557 | 4.59091 | 28967 ft | 366 kts | 273° |
| 2026-05-07 14:19 | 41.07305 | 4.52423 | 28967 ft | 366 kts | 273° |
| 2026-05-07 14:20 | 41.08025 | 4.45795 | 28974 ft | 366 kts | 273° |
| 2026-05-07 14:20 | 41.08737 | 4.39122 | 28971 ft | 366 kts | 272° |
| 2026-05-07 14:21 | 41.09433 | 4.32450 | 28972 ft | 366 kts | 272° |
| 2026-05-07 14:21 | 41.10131 | 4.25801 | 28981 ft | 363 kts | 273° |
| 2026-05-07 14:22 | 41.10839 | 4.19159 | 28961 ft | 364 kts | 272° |
| 2026-05-07 14:22 | 41.11533 | 4.12506 | 28961 ft | 364 kts | 272° |
| 2026-05-07 14:23 | 41.12224 | 4.05842 | 28976 ft | 368 kts | 272° |
| 2026-05-07 14:23 | 41.12571 | 4.02432 | 28744 ft | 375 kts | 272° |
| 2026-05-07 14:23 | 41.12922 | 3.98996 | 28064 ft | 376 kts | 273° |
| 2026-05-07 14:23 | 41.13274 | 3.95567 | 27452 ft | 374 kts | 273° |
| 2026-05-07 14:24 | 41.13626 | 3.92172 | 27020 ft | 368 kts | 273° |
| 2026-05-07 14:24 | 41.13972 | 3.88830 | 26611 ft | 363 kts | 273° |
| 2026-05-07 14:24 | 41.14310 | 3.85544 | 26205 ft | 358 kts | 273° |
| 2026-05-07 14:24 | 41.14644 | 3.82287 | 25809 ft | 353 kts | 273° |
| 2026-05-07 14:25 | 41.14908 | 3.79083 | 25396 ft | 346 kts | 267° |
| 2026-05-07 14:25 | 41.14723 | 3.75945 | 24994 ft | 338 kts | 256° |
| 2026-05-07 14:25 | 41.14057 | 3.72991 | 24704 ft | 334 kts | 245° |
| 2026-05-07 14:25 | 41.13000 | 3.70288 | 24440 ft | 335 kts | 240° |
| 2026-05-07 14:26 | 41.11829 | 3.67561 | 24150 ft | 336 kts | 240° |
| 2026-05-07 14:26 | 41.10681 | 3.64866 | 23866 ft | 335 kts | 240° |
| 2026-05-07 14:26 | 41.09550 | 3.62207 | 23581 ft | 335 kts | 240° |
| 2026-05-07 14:26 | 41.08442 | 3.59450 | 23317 ft | 334 kts | 247° |
| 2026-05-07 14:27 | 41.07932 | 3.56503 | 23068 ft | 336 kts | 264° |
| 2026-05-07 14:27 | 41.07897 | 3.53393 | 22820 ft | 338 kts | 266° |
| 2026-05-07 14:27 | 41.07893 | 3.50284 | 22570 ft | 337 kts | 267° |
| 2026-05-07 14:27 | 41.07898 | 3.47182 | 22320 ft | 336 kts | 267° |
| 2026-05-07 14:28 | 41.07903 | 3.44085 | 22070 ft | 336 kts | 267° |
| 2026-05-07 14:28 | 41.07905 | 3.40992 | 21819 ft | 335 kts | 267° |
| 2026-05-07 14:28 | 41.07903 | 3.37904 | 21567 ft | 335 kts | 267° |
| 2026-05-07 14:28 | 41.07898 | 3.34825 | 21316 ft | 334 kts | 267° |
| 2026-05-07 14:29 | 41.07891 | 3.31748 | 21068 ft | 334 kts | 267° |
| 2026-05-07 14:29 | 41.07884 | 3.28676 | 20818 ft | 333 kts | 267° |
| 2026-05-07 14:29 | 41.07879 | 3.25615 | 20577 ft | 332 kts | 267° |
| 2026-05-07 14:29 | 41.07872 | 3.22555 | 20319 ft | 332 kts | 267° |
| 2026-05-07 14:30 | 41.07861 | 3.19499 | 20064 ft | 331 kts | 267° |
| 2026-05-07 14:30 | 41.07848 | 3.16447 | 19815 ft | 331 kts | 267° |
| 2026-05-07 14:30 | 41.07835 | 3.13403 | 19563 ft | 330 kts | 267° |
| 2026-05-07 14:30 | 41.07822 | 3.10365 | 19313 ft | 329 kts | 267° |
| 2026-05-07 14:31 | 41.07807 | 3.07332 | 19059 ft | 329 kts | 267° |
| 2026-05-07 14:31 | 41.07790 | 3.04302 | 18810 ft | 328 kts | 267° |
| 2026-05-07 14:31 | 41.07774 | 3.01278 | 18561 ft | 328 kts | 267° |
| 2026-05-07 14:31 | 41.07762 | 2.98258 | 18310 ft | 327 kts | 268° |
| 2026-05-07 14:32 | 41.07750 | 2.95251 | 18060 ft | 327 kts | 267° |
| 2026-05-07 14:32 | 41.07733 | 2.92244 | 17809 ft | 326 kts | 267° |
| 2026-05-07 14:32 | 41.07713 | 2.89241 | 17556 ft | 325 kts | 267° |
| 2026-05-07 14:32 | 41.07690 | 2.86247 | 17310 ft | 325 kts | 267° |
| 2026-05-07 14:33 | 41.07668 | 2.83259 | 17061 ft | 324 kts | 267° |
| 2026-05-07 14:33 | 41.07649 | 2.80280 | 16811 ft | 323 kts | 268° |
| 2026-05-07 14:33 | 41.07632 | 2.77350 | 16565 ft | 322 kts | 268° |
| 2026-05-07 14:33 | 41.07614 | 2.74388 | 16314 ft | 321 kts | 268° |
| 2026-05-07 14:34 | 41.07593 | 2.71435 | 16063 ft | 320 kts | 268° |
| 2026-05-07 14:34 | 41.07571 | 2.68498 | 15813 ft | 319 kts | 267° |
| 2026-05-07 14:34 | 41.07546 | 2.65562 | 15558 ft | 318 kts | 267° |
| 2026-05-07 14:34 | 41.07521 | 2.62638 | 15312 ft | 317 kts | 267° |
| 2026-05-07 14:35 | 41.07494 | 2.59719 | 15062 ft | 316 kts | 268° |
| 2026-05-07 14:35 | 41.07469 | 2.56807 | 14811 ft | 315 kts | 268° |
| 2026-05-07 14:35 | 41.07447 | 2.53906 | 14561 ft | 314 kts | 268° |
| 2026-05-07 14:35 | 41.07422 | 2.51013 | 14311 ft | 314 kts | 268° |
| 2026-05-07 14:36 | 41.07395 | 2.48126 | 14059 ft | 313 kts | 267° |
| 2026-05-07 14:36 | 41.07366 | 2.45248 | 13809 ft | 312 kts | 267° |
| 2026-05-07 14:36 | 41.07334 | 2.42377 | 13558 ft | 311 kts | 267° |
| 2026-05-07 14:36 | 41.07304 | 2.39519 | 13309 ft | 310 kts | 268° |
| 2026-05-07 14:37 | 41.07275 | 2.36665 | 13058 ft | 309 kts | 268° |
| 2026-05-07 14:37 | 41.07218 | 2.30980 | 12571 ft | 305 kts | 268° |
| 2026-05-07 14:37 | 41.07188 | 2.28187 | 12239 ft | 302 kts | 268° |
| 2026-05-07 14:38 | 41.07155 | 2.25412 | 11867 ft | 301 kts | 268° |
| 2026-05-07 14:38 | 41.07121 | 2.22647 | 11491 ft | 299 kts | 268° |
| 2026-05-07 14:38 | 41.07087 | 2.19892 | 11090 ft | 299 kts | 268° |
| 2026-05-07 14:38 | 41.07039 | 2.17143 | 10688 ft | 298 kts | 267° |
| 2026-05-07 14:39 | 41.06981 | 2.14406 | 10286 ft | 297 kts | 267° |
| 2026-05-07 14:39 | 41.06941 | 2.12593 | 10019 ft | 297 kts | 267° |
| 2026-05-07 14:39 | 41.06880 | 2.09882 | 9727 ft | 291 kts | 267° |
| 2026-05-07 14:39 | 41.06817 | 2.07191 | 9324 ft | 291 kts | 268° |
| 2026-05-07 14:40 | 41.06754 | 2.04510 | 8905 ft | 290 kts | 268° |
| 2026-05-07 14:40 | 41.06671 | 2.00984 | 8367 ft | 288 kts | 268° |
| 2026-05-07 14:40 | 41.06629 | 1.99195 | 8041 ft | 289 kts | 268° |
| 2026-05-07 14:40 | 41.06570 | 1.96551 | 7668 ft | 286 kts | 268° |
| 2026-05-07 14:41 | 41.06510 | 1.93943 | 7410 ft | 279 kts | 268° |
| 2026-05-07 14:41 | 41.06542 | 1.91435 | 7285 ft | 267 kts | 281° |
| 2026-05-07 14:41 | 41.07227 | 1.89231 | 7141 ft | 255 kts | 306° |
| 2026-05-07 14:41 | 41.08515 | 1.87655 | 6701 ft | 255 kts | 332° |
| 2026-05-07 14:42 | 41.10155 | 1.86856 | 6292 ft | 249 kts | 343° |
| 2026-05-07 14:42 | 41.11800 | 1.86156 | 5718 ft | 248 kts | 342° |
| 2026-05-07 14:42 | 41.13440 | 1.85446 | 5126 ft | 248 kts | 342° |
| 2026-05-07 14:42 | 41.15071 | 1.84732 | 4587 ft | 246 kts | 342° |
| 2026-05-07 14:43 | 41.16657 | 1.84035 | 4383 ft | 233 kts | 342° |
| 2026-05-07 14:43 | 41.18157 | 1.83373 | 4314 ft | 221 kts | 342° |
| 2026-05-07 14:43 | 41.19636 | 1.82930 | 4072 ft | 216 kts | 4° |
| 2026-05-07 14:43 | 41.20994 | 1.83526 | 3843 ft | 203 kts | 38° |
| 2026-05-07 14:44 | 41.21833 | 1.84949 | 3588 ft | 192 kts | 67° |
| 2026-05-07 14:44 | 41.22381 | 1.86546 | 3333 ft | 189 kts | 68° |
| 2026-05-07 14:44 | 41.22915 | 1.88103 | 3085 ft | 187 kts | 68° |
| 2026-05-07 14:44 | 41.23454 | 1.89666 | 2842 ft | 186 kts | 68° |
| 2026-05-07 14:45 | 41.23990 | 1.91221 | 2589 ft | 184 kts | 68° |
| 2026-05-07 14:45 | 41.24520 | 1.92756 | 2352 ft | 181 kts | 68° |
| 2026-05-07 14:45 | 41.25036 | 1.94255 | 2112 ft | 176 kts | 68° |
| 2026-05-07 14:45 | 41.25540 | 1.95717 | 1878 ft | 172 kts | 67° |
| 2026-05-07 14:46 | 41.26030 | 1.97143 | 1666 ft | 167 kts | 67° |
| 2026-05-07 14:46 | 41.26506 | 1.98521 | 1434 ft | 159 kts | 67° |
| 2026-05-07 14:46 | 41.26952 | 1.99817 | 1216 ft | 149 kts | 67° |
| 2026-05-07 14:46 | 41.27375 | 2.01039 | 1021 ft | 143 kts | 67° |
| 2026-05-07 14:47 | 41.27784 | 2.02234 | 851 ft | 141 kts | 67° |
| 2026-05-07 14:47 | 41.28190 | 2.03415 | 632 ft | 140 kts | 66° |
| 2026-05-07 14:47 | 41.28595 | 2.04592 | 464 ft | 140 kts | 67° |
| 2026-05-07 14:47 | 41.28998 | 2.05768 | 297 ft | 140 kts | 67° |
| 2026-05-07 14:48 | 41.29401 | 2.06947 | 106 ft | 141 kts | 67° |
| 2026-05-07 14:48 | 41.29793 | 2.08094 | 19 ft | 123 kts | 65° |
| 2026-05-07 14:48 | 41.30072 | 2.08918 | 20 ft | 68 kts | 65° |
| 2026-05-07 14:48 | 41.30135 | 2.09242 | 16 ft | 21 kts | 92° |
| 2026-05-07 14:49 | 41.30126 | 2.09372 | 15 ft | 7 kts | 98° |
| 2026-05-07 14:49 | 41.30110 | 2.09418 | 17 ft | 6 kts | 136° |
| 2026-05-07 14:49 | 41.30058 | 2.09411 | 16 ft | 11 kts | 225° |
| 2026-05-07 14:49 | 41.30014 | 2.09290 | 17 ft | 16 kts | 245° |
| 2026-05-07 14:50 | 41.29970 | 2.09163 | 18 ft | 14 kts | 246° |
| 2026-05-07 14:50 | 41.29932 | 2.09052 | 19 ft | 14 kts | 246° |
| 2026-05-07 14:50 | 41.29883 | 2.08910 | 20 ft | 20 kts | 245° |
| 2026-05-07 14:50 | 41.29818 | 2.08719 | 18 ft | 25 kts | 246° |
| 2026-05-07 14:51 | 41.29744 | 2.08503 | 17 ft | 27 kts | 245° |
| 2026-05-07 14:51 | 41.29669 | 2.08284 | 18 ft | 26 kts | 245° |
| 2026-05-07 14:51 | 41.29601 | 2.08081 | 18 ft | 23 kts | 246° |
| 2026-05-07 14:51 | 41.29549 | 2.07947 | 18 ft | 11 kts | 223° |
| 2026-05-07 14:52 | 41.29484 | 2.07960 | 15 ft | 10 kts | 155° |
| 2026-05-07 14:52 | 41.29428 | 2.07993 | 16 ft | 8 kts | 156° |
| 2026-05-07 14:52 | 41.29386 | 2.08019 | 18 ft | 7 kts | 155° |
| 2026-05-07 14:52 | 41.29340 | 2.08047 | 18 ft | 8 kts | 155° |
| 2026-05-07 14:53 | 41.29278 | 2.08077 | 19 ft | 10 kts | 162° |
| 2026-05-07 14:53 | 41.29226 | 2.08104 | 19 ft | 6 kts | 156° |
| 2026-05-07 14:53 | 41.29209 | 2.08114 | 20 ft | 1 kts | 156° |
| 2026-05-07 14:53 | 41.29208 | 2.08114 | 19 ft | 0 kts | 156° |